createdAt,value
2018-07-10T00:00:42.819Z,93.92
2018-07-10T00:01:42.802Z,94.45
2018-07-10T00:02:42.786Z,93.68
2018-07-10T00:03:42.771Z,93.73
2018-07-10T00:04:42.753Z,94.01
2018-07-10T00:05:42.739Z,94.01
2018-07-10T00:06:42.722Z,93.25
2018-07-10T00:07:42.705Z,92.48
2018-07-10T00:08:42.689Z,91.90
2018-07-10T00:09:42.674Z,91.81
2018-07-10T00:10:42.657Z,91.47
2018-07-10T00:11:42.644Z,91.18
2018-07-10T00:12:42.625Z,90.89
2018-07-10T00:13:42.608Z,89.64
2018-07-10T00:14:42.593Z,90.03
2018-07-10T00:15:42.575Z,90.31
2018-07-10T00:16:42.559Z,89.64
2018-07-10T00:17:42.545Z,89.83
2018-07-10T00:18:42.528Z,89.16
2018-07-10T00:19:42.511Z,88.78
2018-07-10T00:20:42.495Z,88.59
2018-07-10T00:21:42.479Z,88.01
2018-07-10T00:22:42.463Z,88.59
2018-07-10T00:23:42.446Z,87.57
2018-07-10T00:24:42.431Z,87.09
2018-07-10T00:25:42.413Z,87.34
2018-07-10T00:26:42.397Z,86.52
2018-07-10T00:27:42.381Z,85.94
2018-07-10T00:28:42.365Z,85.84
2018-07-10T00:29:42.347Z,85.84
2018-07-10T00:30:42.332Z,85.07
2018-07-10T00:31:42.314Z,85.07
2018-07-10T00:32:42.298Z,84.40
2018-07-10T00:33:42.283Z,84.50
2018-07-10T00:34:42.267Z,83.63
2018-07-10T00:35:42.250Z,84.21
2018-07-10T00:36:42.243Z,83.92
2018-07-10T00:37:42.217Z,83.53
2018-07-10T00:38:42.201Z,83.83
2018-07-10T00:39:42.183Z,83.83
2018-07-10T00:40:42.167Z,83.63
2018-07-10T00:41:42.153Z,83.44
2018-07-10T00:42:42.135Z,83.15
2018-07-10T00:43:42.118Z,83.63
2018-07-10T00:44:42.101Z,83.92
2018-07-10T00:45:42.085Z,83.53
2018-07-10T00:46:42.069Z,83.44
2018-07-10T00:47:42.065Z,83.73
2018-07-10T00:48:42.040Z,84.50
2018-07-10T00:49:42.019Z,83.53
2018-07-10T00:50:42.003Z,83.25
2018-07-10T00:51:41.986Z,83.63
2018-07-10T00:52:42.720Z,84.59
2018-07-10T00:53:41.953Z,84.69
2018-07-10T00:54:41.937Z,84.88
2018-07-10T00:55:41.922Z,84.78
2018-07-10T00:56:41.903Z,83.63
2018-07-10T00:57:41.887Z,84.01
2018-07-10T00:58:41.871Z,83.53
2018-07-10T00:59:41.855Z,83.83
2018-07-10T01:00:41.837Z,83.53
2018-07-10T01:01:41.820Z,84.30
2018-07-10T01:02:41.806Z,84.59
2018-07-10T01:03:41.791Z,84.11
2018-07-10T01:04:41.771Z,83.73
2018-07-10T01:05:41.756Z,84.40
2018-07-10T01:06:41.741Z,84.17
2018-07-10T01:07:41.722Z,84.50
2018-07-10T01:08:41.705Z,84.40
2018-07-10T01:09:41.692Z,84.26
2018-07-10T01:10:41.673Z,84.74
2018-07-10T01:11:41.655Z,84.55
2018-07-10T01:12:41.638Z,85.32
2018-07-10T01:13:41.622Z,84.84
2018-07-10T01:14:41.605Z,84.74
2018-07-10T01:15:41.589Z,84.74
2018-07-10T01:16:41.572Z,84.84
2018-07-10T01:17:41.557Z,84.94
2018-07-10T01:18:41.540Z,85.13
2018-07-10T01:19:41.523Z,84.55
2018-07-10T01:20:41.505Z,84.74
2018-07-10T01:21:41.488Z,84.74
2018-07-10T01:22:41.472Z,85.22
2018-07-10T01:23:41.456Z,84.74
2018-07-10T01:24:41.438Z,85.32
2018-07-10T01:25:41.422Z,85.13
2018-07-10T01:26:41.406Z,84.55
2018-07-10T01:27:41.391Z,84.74
2018-07-10T01:28:41.373Z,84.84
2018-07-10T01:29:41.355Z,84.26
2018-07-10T01:30:41.338Z,84.36
2018-07-10T01:31:41.322Z,83.97
2018-07-10T01:32:41.305Z,84.64
2018-07-10T01:33:41.293Z,84.55
2018-07-10T01:34:41.271Z,84.07
2018-07-10T01:35:41.254Z,84.07
2018-07-10T01:36:41.238Z,83.78
2018-07-10T01:37:41.221Z,83.59
2018-07-10T01:38:41.204Z,84.17
2018-07-10T01:39:41.187Z,83.59
2018-07-10T01:40:41.171Z,84.07
2018-07-10T01:41:41.154Z,83.59
2018-07-10T01:42:41.137Z,83.20
2018-07-10T01:43:41.119Z,83.69
2018-07-10T01:44:41.105Z,83.49
2018-07-10T01:45:41.089Z,83.69
2018-07-10T01:46:41.071Z,83.49
2018-07-10T01:47:41.053Z,83.20
2018-07-10T01:48:41.041Z,82.82
2018-07-10T01:49:41.020Z,82.43
2018-07-10T01:50:41.002Z,82.92
2018-07-10T01:51:40.985Z,82.73
2018-07-10T01:52:40.969Z,82.53
2018-07-10T01:53:40.952Z,82.43
2018-07-10T01:54:40.938Z,82.82
2018-07-10T01:55:40.919Z,82.63
2018-07-10T01:56:40.902Z,82.34
2018-07-10T01:57:40.884Z,82.24
2018-07-10T01:58:40.870Z,82.53
2018-07-10T01:59:40.855Z,81.76
2018-07-10T02:00:40.834Z,81.96
2018-07-10T02:01:40.819Z,82.24
2018-07-10T02:02:40.801Z,82.43
2018-07-10T02:03:40.785Z,82.92
2018-07-10T02:04:40.767Z,82.63
2018-07-10T02:05:40.751Z,82.15
2018-07-10T02:06:40.746Z,83.11
2018-07-10T02:07:40.716Z,82.73
2018-07-10T02:08:40.701Z,82.82
2018-07-10T02:09:40.683Z,81.96
2018-07-10T02:10:40.666Z,82.05
2018-07-10T02:11:40.648Z,81.57
2018-07-10T02:12:40.632Z,81.96
2018-07-10T02:13:40.617Z,82.15
2018-07-10T02:14:40.599Z,81.86
2018-07-10T02:15:40.583Z,82.24
2018-07-10T02:16:40.565Z,81.57
2018-07-10T02:17:40.549Z,82.34
2018-07-10T02:18:40.532Z,82.15
2018-07-10T02:19:40.515Z,82.24
2018-07-10T02:20:40.500Z,81.96
2018-07-10T02:21:40.482Z,82.05
2018-07-10T02:22:40.465Z,82.24
2018-07-10T02:23:40.448Z,81.48
2018-07-10T02:24:40.432Z,81.67
2018-07-10T02:25:40.416Z,82.24
2018-07-10T02:26:40.398Z,81.57
2018-07-10T02:27:40.382Z,81.67
2018-07-10T02:28:40.365Z,81.96
2018-07-10T02:29:40.349Z,81.09
2018-07-10T02:30:40.333Z,81.28
2018-07-10T02:31:40.314Z,81.57
2018-07-10T02:32:40.297Z,81.28
2018-07-10T02:33:40.283Z,81.57
2018-07-10T02:34:40.266Z,83.01
2018-07-10T02:35:40.247Z,82.43
2018-07-10T02:36:40.232Z,82.92
2018-07-10T02:37:40.214Z,82.15
2018-07-10T02:38:40.198Z,82.34
2018-07-10T02:39:40.180Z,81.28
2018-07-10T02:40:40.163Z,81.19
2018-07-10T02:41:40.148Z,81.96
2018-07-10T02:42:40.131Z,82.05
2018-07-10T02:43:40.114Z,81.86
2018-07-10T02:44:40.100Z,82.53
2018-07-10T02:45:40.079Z,83.01
2018-07-10T02:46:40.065Z,83.40
2018-07-10T02:47:40.048Z,82.34
2018-07-10T02:48:40.030Z,83.69
2018-07-10T02:49:40.014Z,83.40
2018-07-10T02:50:43.749Z,83.78
2018-07-10T02:51:39.996Z,83.93
2018-07-10T02:52:39.964Z,83.59
2018-07-10T02:53:39.945Z,82.49
2018-07-10T02:54:39.930Z,82.97
2018-07-10T02:55:39.912Z,83.36
2018-07-10T02:56:39.894Z,84.41
2018-07-10T02:57:39.881Z,84.51
2018-07-10T02:58:39.863Z,84.03
2018-07-10T02:59:39.844Z,85.47
2018-07-10T03:00:39.827Z,85.95
2018-07-10T03:01:39.821Z,86.72
2018-07-10T03:02:39.795Z,85.75
2018-07-10T03:03:39.777Z,86.43
2018-07-10T03:04:39.760Z,86.91
2018-07-10T03:05:39.743Z,86.14
2018-07-10T03:06:39.731Z,85.18
2018-07-10T03:07:39.710Z,84.22
2018-07-10T03:08:39.694Z,85.66
2018-07-10T03:09:39.677Z,84.99
2018-07-10T03:10:39.661Z,85.08
2018-07-10T03:11:39.643Z,85.95
2018-07-10T03:12:40.376Z,87.68
2018-07-10T03:13:39.609Z,88.06
2018-07-10T03:14:39.592Z,89.12
2018-07-10T03:15:39.574Z,88.83
2018-07-10T03:16:39.558Z,88.93
2018-07-10T03:17:39.547Z,89.22
2018-07-10T03:18:39.524Z,89.98
2018-07-10T03:19:39.507Z,90.42
2018-07-10T03:20:39.492Z,90.22
2018-07-10T03:21:39.476Z,89.46
2018-07-10T03:22:39.461Z,90.03
2018-07-10T03:23:39.440Z,89.84
2018-07-10T03:24:39.425Z,89.75
2018-07-10T03:25:39.407Z,89.94
2018-07-10T03:26:39.395Z,90.03
2018-07-10T03:27:39.373Z,90.03
2018-07-10T03:28:40.107Z,90.42
2018-07-10T03:29:39.340Z,90.13
2018-07-10T03:30:39.324Z,90.61
2018-07-10T03:31:39.310Z,90.22
2018-07-10T03:32:39.289Z,90.61
2018-07-10T03:33:39.272Z,90.61
2018-07-10T03:34:39.255Z,91.57
2018-07-10T03:35:39.240Z,91.47
2018-07-10T03:36:39.222Z,91.72
2018-07-10T03:37:39.206Z,91.81
2018-07-10T03:38:39.188Z,91.52
2018-07-10T03:39:39.172Z,91.14
2018-07-10T03:40:39.155Z,91.24
2018-07-10T03:41:39.138Z,89.79
2018-07-10T03:42:39.128Z,90.03
2018-07-10T03:43:39.104Z,90.75
2018-07-10T03:44:39.139Z,91.47
2018-07-10T03:45:39.070Z,91.62
2018-07-10T03:46:39.053Z,91.72
2018-07-10T03:47:39.036Z,91.91
2018-07-10T03:48:39.019Z,93.06
2018-07-10T03:49:39.001Z,92.68
2018-07-10T03:50:38.984Z,91.42
2018-07-10T03:51:38.968Z,91.62
2018-07-10T03:52:38.951Z,91.52
2018-07-10T03:53:38.933Z,91.14
2018-07-10T03:54:38.918Z,90.56
2018-07-10T03:55:38.900Z,90.95
2018-07-10T03:56:38.881Z,91.24
2018-07-10T03:57:38.866Z,91.05
2018-07-10T03:58:38.847Z,91.28
2018-07-10T03:59:38.833Z,90.80
2018-07-10T04:00:38.813Z,90.66
2018-07-10T04:01:38.856Z,90.90
2018-07-10T04:02:38.832Z,91.14
2018-07-10T04:03:38.761Z,91.42
2018-07-10T04:04:38.744Z,91.09
2018-07-10T04:05:38.727Z,91.62
2018-07-10T04:06:38.710Z,91.33
2018-07-10T04:07:38.692Z,91.91
2018-07-10T04:08:38.677Z,91.52
2018-07-10T04:09:38.659Z,92.39
2018-07-10T04:10:38.642Z,93.35
2018-07-10T04:11:39.385Z,93.44
2018-07-10T04:12:38.607Z,93.77
2018-07-10T04:13:38.590Z,93.54
2018-07-10T04:14:38.575Z,93.97
2018-07-10T04:15:38.556Z,93.54
2018-07-10T04:16:38.547Z,93.30
2018-07-10T04:17:38.522Z,93.87
2018-07-10T04:18:38.505Z,93.59
2018-07-10T04:19:38.487Z,92.72
2018-07-10T04:20:38.470Z,92.82
2018-07-10T04:21:38.454Z,92.72
2018-07-10T04:22:38.439Z,91.96
2018-07-10T04:23:38.420Z,91.76
2018-07-10T04:24:38.402Z,91.57
2018-07-10T04:25:38.387Z,91.09
2018-07-10T04:26:38.369Z,91.23
2018-07-10T04:27:38.352Z,90.37
2018-07-10T04:28:38.340Z,90.56
2018-07-10T04:29:38.323Z,89.60
2018-07-10T04:30:38.302Z,88.93
2018-07-10T04:31:38.284Z,89.69
2018-07-10T04:32:38.268Z,89.79
2018-07-10T04:33:38.249Z,89.31
2018-07-10T04:34:38.232Z,89.50
2018-07-10T04:35:38.218Z,89.98
2018-07-10T04:36:38.198Z,89.89
2018-07-10T04:37:38.181Z,89.31
2018-07-10T04:38:38.164Z,90.08
2018-07-10T04:39:38.150Z,89.89
2018-07-10T04:40:38.132Z,89.98
2018-07-10T04:41:38.113Z,89.02
2018-07-10T04:42:38.100Z,88.83
2018-07-10T04:43:38.083Z,89.50
2018-07-10T04:44:38.063Z,89.12
2018-07-10T04:45:38.045Z,89.12
2018-07-10T04:46:38.029Z,89.60
2018-07-10T04:47:38.012Z,89.50
2018-07-10T04:48:37.994Z,91.33
2018-07-10T04:49:37.978Z,89.02
2018-07-10T04:50:37.961Z,88.93
2018-07-10T04:51:37.945Z,88.54
2018-07-10T04:52:37.927Z,88.54
2018-07-10T04:53:37.914Z,90.17
2018-07-10T04:54:37.895Z,89.69
2018-07-10T04:55:37.876Z,88.93
2018-07-10T04:56:37.860Z,88.78
2018-07-10T04:57:37.842Z,88.06
2018-07-10T04:58:37.830Z,88.64
2018-07-10T04:59:37.811Z,89.02
2018-07-10T05:00:37.793Z,89.74
2018-07-10T05:01:37.775Z,90.70
2018-07-10T05:02:37.758Z,88.83
2018-07-10T05:03:37.740Z,89.26
2018-07-10T05:04:37.725Z,88.78
2018-07-10T05:05:37.709Z,87.92
2018-07-10T05:06:37.694Z,88.64
2018-07-10T05:07:37.675Z,89.02
2018-07-10T05:08:37.661Z,89.12
2018-07-10T05:09:37.642Z,88.83
2018-07-10T05:10:37.626Z,89.02
2018-07-10T05:11:37.608Z,89.60
2018-07-10T05:12:37.592Z,89.22
2018-07-10T05:13:37.575Z,89.89
2018-07-10T05:14:37.561Z,89.79
2018-07-10T05:15:37.541Z,89.79
2018-07-10T05:16:37.526Z,89.69
2018-07-10T05:17:37.545Z,90.08
2018-07-10T05:18:37.492Z,90.17
2018-07-10T05:19:37.473Z,89.60
2018-07-10T05:20:37.459Z,89.60
2018-07-10T05:21:37.440Z,90.27
2018-07-10T05:22:37.425Z,90.84
2018-07-10T05:23:37.417Z,89.79
2018-07-10T05:24:37.390Z,88.64
2018-07-10T05:25:37.373Z,89.36
2018-07-10T05:26:37.356Z,89.36
2018-07-10T05:27:37.338Z,89.36
2018-07-10T05:28:37.353Z,88.97
2018-07-10T05:29:37.305Z,89.26
2018-07-10T05:30:37.289Z,89.07
2018-07-10T05:31:37.273Z,89.02
2018-07-10T05:32:37.259Z,89.50
2018-07-10T05:33:37.238Z,89.69
2018-07-10T05:34:37.223Z,90.31
2018-07-10T05:35:37.205Z,89.60
2018-07-10T05:36:37.189Z,89.22
2018-07-10T05:37:37.172Z,89.83
2018-07-10T05:38:37.155Z,89.93
2018-07-10T05:39:37.138Z,90.37
2018-07-10T05:40:37.121Z,90.51
2018-07-10T05:41:37.107Z,90.22
2018-07-10T05:42:37.089Z,90.22
2018-07-10T05:43:37.072Z,89.74
2018-07-10T05:44:37.055Z,89.50
2018-07-10T05:45:37.040Z,90.03
2018-07-10T05:46:37.022Z,90.56
2018-07-10T05:47:37.006Z,91.28
2018-07-10T05:48:36.988Z,90.70
2018-07-10T05:49:36.974Z,91.47
2018-07-10T05:50:36.957Z,90.89
2018-07-10T05:51:36.980Z,91.85
2018-07-10T05:52:36.925Z,91.56
2018-07-10T05:53:36.905Z,91.66
2018-07-10T05:54:36.896Z,91.75
2018-07-10T05:55:38.377Z,91.66
2018-07-10T05:56:36.856Z,91.66
2018-07-10T05:57:36.840Z,92.09
2018-07-10T05:58:36.829Z,92.67
2018-07-10T05:59:36.809Z,92.67
2018-07-10T06:00:36.800Z,91.85
2018-07-10T06:01:37.525Z,92.05
2018-07-10T06:02:36.759Z,92.81
2018-07-10T06:03:36.742Z,92.47
2018-07-10T06:04:36.729Z,92.62
2018-07-10T06:05:36.711Z,91.66
2018-07-10T06:06:36.694Z,92.91
2018-07-10T06:07:36.678Z,92.72
2018-07-10T06:08:36.660Z,92.52
2018-07-10T06:09:36.649Z,92.38
2018-07-10T06:10:36.708Z,92.24
2018-07-10T06:11:36.611Z,91.71
2018-07-10T06:12:36.596Z,92.09
2018-07-10T06:13:36.580Z,91.71
2018-07-10T06:14:36.564Z,92.43
2018-07-10T06:15:36.548Z,92.47
2018-07-10T06:16:36.532Z,91.90
2018-07-10T06:17:36.515Z,91.71
2018-07-10T06:18:36.500Z,91.42
2018-07-10T06:19:36.482Z,91.52
2018-07-10T06:20:36.466Z,91.90
2018-07-10T06:21:36.450Z,91.52
2018-07-10T06:22:36.434Z,91.42
2018-07-10T06:23:36.417Z,91.80
2018-07-10T06:24:36.408Z,91.22
2018-07-10T06:25:36.387Z,90.45
2018-07-10T06:26:36.371Z,90.55
2018-07-10T06:27:36.352Z,89.88
2018-07-10T06:28:37.088Z,90.55
2018-07-10T06:29:36.322Z,90.45
2018-07-10T06:30:36.305Z,90.36
2018-07-10T06:31:36.287Z,90.36
2018-07-10T06:32:36.273Z,89.78
2018-07-10T06:33:36.256Z,89.40
2018-07-10T06:34:36.240Z,89.40
2018-07-10T06:35:36.269Z,88.82
2018-07-10T06:36:36.207Z,88.82
2018-07-10T06:37:36.192Z,88.53
2018-07-10T06:38:36.176Z,88.73
2018-07-10T06:39:36.182Z,88.53
2018-07-10T06:40:36.142Z,88.53
2018-07-10T06:41:36.125Z,88.39
2018-07-10T06:42:36.109Z,88.87
2018-07-10T06:43:36.093Z,88.67
2018-07-10T06:44:36.080Z,88.96
2018-07-10T06:45:36.060Z,88.87
2018-07-10T06:46:36.044Z,88.87
2018-07-10T06:47:36.027Z,89.06
2018-07-10T06:48:36.041Z,89.83
2018-07-10T06:49:36.042Z,89.29
2018-07-10T06:50:35.982Z,89.87
2018-07-10T06:51:35.964Z,89.10
2018-07-10T06:52:36.112Z,89.58
2018-07-10T06:53:35.937Z,88.04
2018-07-10T06:54:35.916Z,88.43
2018-07-10T06:55:35.900Z,88.91
2018-07-10T06:56:35.885Z,89.49
2018-07-10T06:57:35.869Z,89.92
2018-07-10T06:58:35.852Z,89.01
2018-07-10T06:59:35.835Z,86.74
2018-07-10T07:00:35.827Z,86.31
2018-07-10T07:01:35.805Z,87.60
2018-07-10T07:02:35.793Z,87.70
2018-07-10T07:03:35.775Z,87.99
2018-07-10T07:04:35.763Z,87.99
2018-07-10T07:05:35.744Z,88.47
2018-07-10T07:06:35.728Z,88.38
2018-07-10T07:07:35.738Z,88.38
2018-07-10T07:08:35.698Z,88.38
2018-07-10T07:09:35.685Z,87.94
2018-07-10T07:10:35.667Z,86.74
2018-07-10T07:11:35.651Z,87.22
2018-07-10T07:12:35.636Z,88.18
2018-07-10T07:13:35.623Z,89.15
2018-07-10T07:14:35.607Z,88.67
2018-07-10T07:15:35.592Z,87.03
2018-07-10T07:16:37.079Z,87.90
2018-07-10T07:17:35.562Z,87.03
2018-07-10T07:18:35.546Z,86.99
2018-07-10T07:19:35.534Z,87.12
2018-07-10T07:20:35.515Z,87.70
2018-07-10T07:21:35.500Z,87.80
2018-07-10T07:22:35.486Z,87.41
2018-07-10T07:23:35.470Z,86.16
2018-07-10T07:24:35.458Z,86.74
2018-07-10T07:25:35.440Z,88.18
2018-07-10T07:26:35.427Z,85.58
2018-07-10T07:27:35.409Z,85.58
2018-07-10T07:28:35.395Z,85.49
2018-07-10T07:29:35.380Z,85.64
2018-07-10T07:30:35.365Z,85.58
2018-07-10T07:31:35.349Z,85.97
2018-07-10T07:32:35.335Z,86.35
2018-07-10T07:33:35.321Z,86.26
2018-07-10T07:34:35.308Z,86.35
2018-07-10T07:35:35.288Z,87.51
2018-07-10T07:36:35.274Z,86.65
2018-07-10T07:37:35.261Z,86.16
2018-07-10T07:38:35.246Z,85.97
2018-07-10T07:39:35.229Z,86.78
2018-07-10T07:40:35.219Z,87.17
2018-07-10T07:41:35.203Z,85.53
2018-07-10T07:42:35.185Z,85.72
2018-07-10T07:43:35.220Z,86.78
2018-07-10T07:44:35.156Z,86.88
2018-07-10T07:45:35.139Z,85.91
2018-07-10T07:46:35.124Z,85.47
2018-07-10T07:47:35.111Z,84.90
2018-07-10T07:48:35.094Z,84.22
2018-07-10T07:49:35.081Z,83.89
2018-07-10T07:50:35.066Z,84.42
2018-07-10T07:51:35.051Z,83.61
2018-07-10T07:52:35.094Z,83.80
2018-07-10T07:53:35.023Z,84.52
2018-07-10T07:54:35.011Z,83.84
2018-07-10T07:55:34.992Z,83.80
2018-07-10T07:56:34.980Z,82.93
2018-07-10T07:57:34.964Z,83.41
2018-07-10T07:58:34.950Z,82.26
2018-07-10T07:59:34.936Z,82.89
2018-07-10T08:00:34.975Z,84.47
2018-07-10T08:01:34.908Z,84.66
2018-07-10T08:02:34.893Z,84.86
2018-07-10T08:03:34.878Z,82.54
2018-07-10T08:04:34.866Z,81.93
2018-07-10T08:05:37.853Z,82.98
2018-07-10T08:06:34.839Z,83.03
2018-07-10T08:07:34.823Z,81.04
2018-07-10T08:08:34.806Z,79.79
2018-07-10T08:09:34.791Z,80.76
2018-07-10T08:10:34.777Z,79.93
2018-07-10T08:11:34.763Z,80.02
2018-07-10T08:12:34.750Z,80.69
2018-07-10T08:13:34.736Z,77.71
2018-07-10T08:14:34.722Z,78.09
2018-07-10T08:15:34.707Z,78.38
2018-07-10T08:16:34.691Z,78.42
2018-07-10T08:17:34.678Z,79.19
2018-07-10T08:18:34.668Z,78.33
2018-07-10T08:19:34.651Z,77.69
2018-07-10T08:20:34.637Z,77.98
2018-07-10T08:21:34.623Z,80.00
2018-07-10T08:22:34.610Z,77.78
2018-07-10T08:23:34.596Z,77.50
2018-07-10T08:24:34.638Z,76.34
2018-07-10T08:25:34.569Z,77.78
2018-07-10T08:26:34.555Z,77.84
2018-07-10T08:27:34.542Z,76.50
2018-07-10T08:28:34.527Z,77.42
2018-07-10T08:29:34.513Z,78.00
2018-07-10T08:30:34.502Z,78.86
2018-07-10T08:31:34.485Z,77.75
2018-07-10T08:32:34.472Z,78.71
2018-07-10T08:33:34.657Z,78.91
2018-07-10T08:34:34.456Z,78.03
2018-07-10T08:35:34.431Z,79.25
2018-07-10T08:36:34.418Z,81.80
2018-07-10T08:37:34.405Z,78.23
2018-07-10T08:38:35.142Z,79.14
2018-07-10T08:39:34.378Z,77.69
2018-07-10T08:40:34.364Z,77.50
2018-07-10T08:41:34.350Z,79.00
2018-07-10T08:42:34.338Z,80.35
2018-07-10T08:43:34.333Z,82.86
2018-07-10T08:44:34.328Z,82.96
2018-07-10T08:45:34.296Z,81.41
2018-07-10T08:46:34.283Z,82.32
2018-07-10T08:47:34.269Z,80.60
2018-07-10T08:48:34.256Z,82.34
2018-07-10T08:49:34.242Z,84.36
2018-07-10T08:50:34.240Z,84.31
2018-07-10T08:51:34.216Z,83.44
2018-07-10T08:52:34.202Z,81.99
2018-07-10T08:53:34.189Z,81.85
2018-07-10T08:54:34.175Z,83.34
2018-07-10T08:55:34.161Z,81.37
2018-07-10T08:56:34.147Z,82.43
2018-07-10T08:57:34.136Z,83.20
2018-07-10T08:58:34.123Z,85.17
2018-07-10T08:59:34.108Z,84.98
2018-07-10T09:00:34.095Z,82.09
2018-07-10T09:01:34.082Z,82.90
2018-07-10T09:02:34.068Z,82.18
2018-07-10T09:03:34.055Z,80.20
2018-07-10T09:04:34.040Z,81.11
2018-07-10T09:05:34.029Z,77.78
2018-07-10T09:06:34.016Z,79.29
2018-07-10T09:07:34.001Z,79.58
2018-07-10T09:08:33.988Z,77.84
2018-07-10T09:09:33.975Z,77.94
2018-07-10T09:10:35.463Z,80.83
2018-07-10T09:11:33.948Z,80.58
2018-07-10T09:12:33.935Z,77.94
2018-07-10T09:13:33.923Z,78.48
2018-07-10T09:14:33.910Z,80.64
2018-07-10T09:15:33.896Z,82.57
2018-07-10T09:16:36.887Z,79.62
2018-07-10T09:17:33.871Z,79.85
2018-07-10T09:18:33.860Z,80.47
2018-07-10T09:19:33.845Z,78.25
2018-07-10T09:20:33.832Z,78.48
2018-07-10T09:21:33.819Z,79.83
2018-07-10T09:22:34.559Z,79.35
2018-07-10T09:23:33.795Z,77.22
2018-07-10T09:24:33.783Z,75.97
2018-07-10T09:25:33.771Z,75.64
2018-07-10T09:26:33.757Z,77.67
2018-07-10T09:27:33.743Z,76.67
2018-07-10T09:28:33.731Z,78.69
2018-07-10T09:29:33.720Z,76.37
2018-07-10T09:30:33.707Z,76.61
2018-07-10T09:31:33.694Z,75.87
2018-07-10T09:32:33.683Z,74.19
2018-07-10T09:33:33.817Z,75.02
2018-07-10T09:34:33.657Z,75.85
2018-07-10T09:35:33.644Z,76.86
2018-07-10T09:36:33.634Z,77.86
2018-07-10T09:37:33.621Z,78.25
2018-07-10T09:38:33.610Z,78.83
2018-07-10T09:39:33.595Z,78.58
2018-07-10T09:40:33.583Z,77.80
2018-07-10T09:41:33.572Z,74.87
2018-07-10T09:42:33.560Z,74.48
2018-07-10T09:43:33.548Z,74.83
2018-07-10T09:44:33.536Z,74.38
2018-07-10T09:45:33.525Z,75.84
2018-07-10T09:46:33.515Z,77.86
2018-07-10T09:47:33.499Z,75.89
2018-07-10T09:48:33.486Z,76.37
2018-07-10T09:49:33.476Z,77.21
2018-07-10T09:50:33.467Z,76.24
2018-07-10T09:51:33.451Z,77.73
2018-07-10T09:52:33.440Z,76.47
2018-07-10T09:53:33.427Z,77.67
2018-07-10T09:54:34.970Z,76.26
2018-07-10T09:55:33.403Z,75.58
2018-07-10T09:56:33.389Z,76.42
2018-07-10T09:57:33.378Z,76.45
2018-07-10T09:58:33.368Z,75.93
2018-07-10T09:59:33.353Z,77.15
2018-07-10T10:00:33.342Z,78.02
2018-07-10T10:01:33.332Z,78.21
2018-07-10T10:02:33.322Z,78.92
2018-07-10T10:03:33.306Z,78.54
2018-07-10T10:04:33.295Z,77.92
2018-07-10T10:05:33.282Z,79.31
2018-07-10T10:06:33.272Z,78.15
2018-07-10T10:07:33.258Z,77.96
2018-07-10T10:08:33.247Z,78.29
2018-07-10T10:09:33.233Z,77.42
2018-07-10T10:10:33.228Z,76.51
2018-07-10T10:11:33.209Z,73.38
2018-07-10T10:12:33.201Z,74.12
2018-07-10T10:13:33.188Z,74.12
2018-07-10T10:14:33.174Z,74.99
2018-07-10T10:15:33.162Z,77.44
2018-07-10T10:16:35.402Z,75.47
2018-07-10T10:17:33.136Z,76.72
2018-07-10T10:18:33.124Z,77.59
2018-07-10T10:19:33.116Z,77.59
2018-07-10T10:20:33.103Z,77.98
2018-07-10T10:21:33.089Z,77.78
2018-07-10T10:22:33.826Z,78.69
2018-07-10T10:23:33.067Z,77.63
2018-07-10T10:24:33.050Z,76.53
2018-07-10T10:25:33.039Z,78.08
2018-07-10T10:26:33.027Z,77.78
2018-07-10T10:27:33.015Z,76.53
2018-07-10T10:28:33.002Z,76.43
2018-07-10T10:29:32.990Z,76.57
2018-07-10T10:30:32.980Z,74.02
2018-07-10T10:31:32.963Z,74.02
2018-07-10T10:32:32.952Z,74.35
2018-07-10T10:33:33.690Z,74.06
2018-07-10T10:34:32.928Z,75.99
2018-07-10T10:35:32.913Z,75.06
2018-07-10T10:36:32.901Z,74.06
2018-07-10T10:37:32.890Z,76.86
2018-07-10T10:38:32.882Z,76.95
2018-07-10T10:39:32.865Z,76.76
2018-07-10T10:40:32.853Z,76.61
2018-07-10T10:41:32.849Z,77.28
2018-07-10T10:42:32.829Z,75.16
2018-07-10T10:43:32.815Z,74.64
2018-07-10T10:44:32.803Z,76.34
2018-07-10T10:45:32.790Z,76.53
2018-07-10T10:46:32.777Z,77.30
2018-07-10T10:47:32.764Z,74.69
2018-07-10T10:48:32.753Z,74.02
2018-07-10T10:49:32.813Z,74.27
2018-07-10T10:50:32.729Z,75.76
2018-07-10T10:51:32.717Z,75.70
2018-07-10T10:52:32.703Z,75.51
2018-07-10T10:53:32.690Z,76.47
2018-07-10T10:54:32.678Z,75.31
2018-07-10T10:55:32.665Z,75.60
2018-07-10T10:56:32.653Z,76.95
2018-07-10T10:57:32.642Z,77.01
2018-07-10T10:58:32.629Z,77.92
2018-07-10T10:59:32.617Z,77.83
2018-07-10T11:00:32.603Z,78.02
2018-07-10T11:01:32.590Z,78.02
2018-07-10T11:02:32.585Z,78.31
2018-07-10T11:03:32.565Z,78.02
2018-07-10T11:04:33.310Z,78.69
2018-07-10T11:05:32.541Z,78.02
2018-07-10T11:06:32.529Z,77.59
2018-07-10T11:07:32.527Z,78.46
2018-07-10T11:08:32.503Z,80.10
2018-07-10T11:09:32.492Z,80.05
2018-07-10T11:10:32.481Z,78.02
2018-07-10T11:11:32.466Z,79.89
2018-07-10T11:12:32.454Z,77.83
2018-07-10T11:13:32.443Z,77.01
2018-07-10T11:14:32.431Z,77.83
2018-07-10T11:15:34.024Z,77.92
2018-07-10T11:16:32.404Z,76.47
2018-07-10T11:17:32.399Z,77.92
2018-07-10T11:18:32.381Z,78.66
2018-07-10T11:19:32.368Z,79.91
2018-07-10T11:20:32.357Z,80.10
2018-07-10T11:21:32.344Z,80.14
2018-07-10T11:22:32.334Z,79.50
2018-07-10T11:23:32.320Z,79.16
2018-07-10T11:24:32.308Z,77.03
2018-07-10T11:25:32.296Z,75.79
2018-07-10T11:26:32.285Z,74.77
2018-07-10T11:27:32.273Z,77.80
2018-07-10T11:28:32.261Z,74.29
2018-07-10T11:29:32.248Z,75.20
2018-07-10T11:30:32.268Z,73.84
2018-07-10T11:31:32.226Z,73.46
2018-07-10T11:32:32.213Z,74.04
2018-07-10T11:33:32.203Z,75.06
2018-07-10T11:34:32.191Z,77.57
2018-07-10T11:35:32.179Z,77.05
2018-07-10T11:36:32.167Z,78.06
2018-07-10T11:37:32.157Z,77.34
2018-07-10T11:38:32.144Z,77.92
2018-07-10T11:39:32.135Z,78.21
2018-07-10T11:40:32.121Z,80.76
2018-07-10T11:41:32.112Z,80.57
2018-07-10T11:42:32.099Z,75.79
2018-07-10T11:43:32.087Z,77.83
2018-07-10T11:44:32.075Z,78.73
2018-07-10T11:45:32.064Z,76.03
2018-07-10T11:46:32.051Z,74.87
2018-07-10T11:47:32.040Z,77.86
2018-07-10T11:48:32.027Z,76.80
2018-07-10T11:49:32.017Z,76.22
2018-07-10T11:50:32.005Z,75.26
2018-07-10T11:51:32.151Z,76.80
2018-07-10T11:52:31.980Z,75.84
2018-07-10T11:53:31.969Z,76.80
2018-07-10T11:54:31.957Z,75.06
2018-07-10T11:55:31.947Z,73.58
2018-07-10T11:56:31.940Z,73.96
2018-07-10T11:57:31.922Z,73.67
2018-07-10T11:58:31.910Z,74.77
2018-07-10T11:59:31.899Z,73.38
2018-07-10T12:00:31.886Z,72.55
2018-07-10T12:01:31.875Z,72.42
2018-07-10T12:02:31.863Z,74.31
2018-07-10T12:03:32.603Z,74.64
2018-07-10T12:04:31.843Z,75.02
2018-07-10T12:05:31.828Z,74.64
2018-07-10T12:06:31.815Z,75.64
2018-07-10T12:07:31.801Z,76.22
2018-07-10T12:08:31.790Z,75.16
2018-07-10T12:09:31.777Z,76.06
2018-07-10T12:10:31.765Z,74.13
2018-07-10T12:11:31.752Z,74.19
2018-07-10T12:12:31.779Z,75.22
2018-07-10T12:13:31.729Z,75.51
2018-07-10T12:14:34.719Z,74.60
2018-07-10T12:15:31.703Z,75.99
2018-07-10T12:16:31.693Z,75.60
2018-07-10T12:17:31.684Z,75.18
2018-07-10T12:18:31.667Z,75.76
2018-07-10T12:19:31.654Z,76.15
2018-07-10T12:20:31.642Z,78.17
2018-07-10T12:21:31.628Z,77.15
2018-07-10T12:22:31.616Z,74.41
2018-07-10T12:23:31.604Z,75.18
2018-07-10T12:24:31.590Z,75.37
2018-07-10T12:25:31.579Z,74.83
2018-07-10T12:26:31.566Z,74.64
2018-07-10T12:27:31.552Z,74.06
2018-07-10T12:28:31.541Z,71.80
2018-07-10T12:29:31.528Z,73.38
2018-07-10T12:30:31.515Z,72.61
2018-07-10T12:31:31.501Z,72.61
2018-07-10T12:32:31.490Z,73.58
2018-07-10T12:33:31.476Z,75.84
2018-07-10T12:34:31.465Z,73.13
2018-07-10T12:35:31.450Z,71.48
2018-07-10T12:36:31.438Z,71.16
2018-07-10T12:37:31.425Z,72.32
2018-07-10T12:38:31.415Z,71.88
2018-07-10T12:39:31.400Z,72.74
2018-07-10T12:40:31.389Z,71.48
2018-07-10T12:41:31.435Z,71.16
2018-07-10T12:42:31.364Z,72.03
2018-07-10T12:43:31.351Z,71.36
2018-07-10T12:44:31.339Z,71.20
2018-07-10T12:45:31.327Z,70.72
2018-07-10T12:46:31.315Z,70.90
2018-07-10T12:47:31.302Z,71.97
2018-07-10T12:48:31.290Z,72.49
2018-07-10T12:49:31.342Z,71.00
2018-07-10T12:50:31.267Z,71.14
2018-07-10T12:51:31.256Z,73.55
2018-07-10T12:52:31.246Z,74.27